createdAt,value
2019-02-11T00:00:00.425Z,71.06
2019-02-11T00:02:32.676Z,71.20
2019-02-11T00:05:04.930Z,71.37
2019-02-11T00:07:37.116Z,71.42
2019-02-11T00:10:09.296Z,71.37
2019-02-11T00:12:42.505Z,71.43
2019-02-11T00:15:14.856Z,71.37
2019-02-11T00:17:46.996Z,71.32
2019-02-11T00:20:19.160Z,71.26
2019-02-11T00:22:51.319Z,71.25
2019-02-11T00:25:23.488Z,71.23
2019-02-11T00:27:55.636Z,71.22
2019-02-11T00:30:27.669Z,71.26
2019-02-11T00:32:59.737Z,71.04
2019-02-11T00:35:31.837Z,71.23
2019-02-11T00:38:04.060Z,71.28
2019-02-11T00:40:36.141Z,71.17
2019-02-11T00:43:08.273Z,71.17
2019-02-11T00:45:41.481Z,71.14
2019-02-11T00:48:13.626Z,71.10
2019-02-11T00:50:45.948Z,71.11
2019-02-11T00:53:18.260Z,70.97
2019-02-11T00:55:50.568Z,71.08
2019-02-11T00:58:22.707Z,71.05
2019-02-11T01:00:55.093Z,71.18
2019-02-11T01:03:27.320Z,71.07
2019-02-11T01:05:59.565Z,71.15
2019-02-11T01:08:31.665Z,71.04
2019-02-11T01:11:03.896Z,71.03
2019-02-11T01:13:36.199Z,70.99
2019-02-11T01:16:08.523Z,71.24
2019-02-11T01:18:40.655Z,71.10
2019-02-11T01:21:12.985Z,71.17
2019-02-11T01:23:45.028Z,70.95
2019-02-11T01:26:18.322Z,71.00
2019-02-11T01:28:50.455Z,71.05
2019-02-11T01:31:22.589Z,71.03
2019-02-11T01:33:54.685Z,71.04
2019-02-11T01:36:26.923Z,71.23
2019-02-11T01:38:59.119Z,71.08
2019-02-11T01:41:31.330Z,71.04
2019-02-11T01:44:03.638Z,70.94
2019-02-11T01:46:35.794Z,71.14
2019-02-11T01:49:07.990Z,71.05
2019-02-11T01:51:40.622Z,70.95
2019-02-11T01:54:12.699Z,71.01
2019-02-11T01:56:44.898Z,70.94
2019-02-11T01:59:17.070Z,71.10
2019-02-11T02:01:49.229Z,70.89
2019-02-11T02:04:21.560Z,70.96
2019-02-11T02:06:53.768Z,71.25
2019-02-11T02:09:26.108Z,71.09
2019-02-11T02:11:58.213Z,71.13
2019-02-11T02:14:30.366Z,70.46
2019-02-11T02:17:02.555Z,70.48
2019-02-11T02:19:35.653Z,70.17
2019-02-11T02:22:07.891Z,69.98
2019-02-11T02:24:40.050Z,70.10
2019-02-11T02:27:12.220Z,70.11
2019-02-11T02:29:44.337Z,70.19
2019-02-11T02:32:17.575Z,70.22
2019-02-11T02:34:49.906Z,70.40
2019-02-11T02:37:23.015Z,70.51
2019-02-11T02:39:55.297Z,70.14
2019-02-11T02:42:27.663Z,69.97
2019-02-11T02:44:59.814Z,70.24
2019-02-11T02:47:32.120Z,70.22
2019-02-11T02:50:04.283Z,70.29
2019-02-11T02:52:36.454Z,70.45
2019-02-11T02:55:08.603Z,70.49
2019-02-11T02:57:41.235Z,70.43
2019-02-11T03:00:13.337Z,70.31
2019-02-11T03:02:45.764Z,70.33
2019-02-11T03:05:17.811Z,70.40
2019-02-11T03:07:50.121Z,70.35
2019-02-11T03:10:22.205Z,70.21
2019-02-11T03:12:54.445Z,70.35
2019-02-11T03:15:26.605Z,70.36
2019-02-11T03:17:59.193Z,70.37
2019-02-11T03:20:31.405Z,70.36
2019-02-11T03:23:03.685Z,70.40
2019-02-11T03:25:35.697Z,70.31
2019-02-11T03:28:08.102Z,70.06
2019-02-11T03:30:41.633Z,70.18
2019-02-11T03:33:14.786Z,70.15
2019-02-11T03:35:47.169Z,69.96
2019-02-11T03:38:19.344Z,69.98
2019-02-11T03:40:51.473Z,70.23
2019-02-11T03:43:23.588Z,70.14
2019-02-11T03:45:56.924Z,70.24
2019-02-11T03:48:29.051Z,70.26
2019-02-11T03:51:02.285Z,70.23
2019-02-11T03:53:34.590Z,70.23
2019-02-11T03:56:06.935Z,70.22
2019-02-11T03:58:39.149Z,70.28
2019-02-11T04:01:11.537Z,70.29
2019-02-11T04:03:43.592Z,70.21
2019-02-11T04:06:15.816Z,70.19
2019-02-11T04:08:48.016Z,70.17
2019-02-11T04:11:20.242Z,70.12
2019-02-11T04:13:52.698Z,70.01
2019-02-11T04:16:24.916Z,69.84
2019-02-11T04:18:57.443Z,69.81
2019-02-11T04:21:30.674Z,69.86
2019-02-11T04:24:03.504Z,68.85
2019-02-11T04:26:35.822Z,69.26
2019-02-11T04:29:08.142Z,68.97
2019-02-11T04:31:41.393Z,68.87
2019-02-11T04:34:13.599Z,68.87
2019-02-11T04:36:45.709Z,68.53
2019-02-11T04:39:17.919Z,68.43
2019-02-11T04:41:51.249Z,68.55
2019-02-11T04:44:33.648Z,68.50
2019-02-11T04:46:59.131Z,68.40
2019-02-11T04:49:31.538Z,68.22
2019-02-11T04:52:03.832Z,68.24
2019-02-11T04:54:36.015Z,68.26
2019-02-11T04:57:08.160Z,67.96
2019-02-11T04:59:40.312Z,68.18
2019-02-11T05:02:12.899Z,68.30
2019-02-11T05:04:45.228Z,68.22
2019-02-11T05:07:18.508Z,68.14
2019-02-11T05:09:51.046Z,68.28
2019-02-11T05:12:23.426Z,68.51
2019-02-11T05:14:55.742Z,68.89
2019-02-11T05:17:27.832Z,69.03
2019-02-11T05:20:00.195Z,69.20
2019-02-11T05:22:34.442Z,69.36
2019-02-11T05:25:06.778Z,69.45
2019-02-11T05:27:39.015Z,69.31
2019-02-11T05:30:11.569Z,69.51
2019-02-11T05:32:45.181Z,69.61
2019-02-11T05:35:18.379Z,69.64
2019-02-11T05:37:50.771Z,69.86
2019-02-11T05:40:23.029Z,69.44
2019-02-11T05:42:55.275Z,69.41
2019-02-11T05:45:27.704Z,69.37
2019-02-11T05:47:59.805Z,69.17
2019-02-11T05:50:32.112Z,69.22
2019-02-11T05:53:04.232Z,68.86
2019-02-11T05:55:36.404Z,68.67
2019-02-11T05:58:08.588Z,68.58
2019-02-11T06:00:41.787Z,68.54
2019-02-11T06:03:13.928Z,68.41
2019-02-11T06:05:45.911Z,68.42
2019-02-11T06:08:18.103Z,68.46
2019-02-11T06:10:51.132Z,68.40
2019-02-11T06:13:23.393Z,68.15
2019-02-11T06:15:55.446Z,68.20
2019-02-11T06:18:28.559Z,68.07
2019-02-11T06:21:00.700Z,67.99
2019-02-11T06:23:32.897Z,67.92
2019-02-11T06:26:04.976Z,67.71
2019-02-11T06:28:37.114Z,67.79
2019-02-11T06:31:09.329Z,67.71
2019-02-11T06:33:41.445Z,67.70
2019-02-11T06:36:14.796Z,67.53
2019-02-11T06:38:46.944Z,67.43
2019-02-11T06:41:19.156Z,67.30
2019-02-11T06:43:51.455Z,67.16
2019-02-11T06:46:23.524Z,67.09
2019-02-11T06:48:55.645Z,66.99
2019-02-11T06:51:28.871Z,66.67
2019-02-11T06:54:01.025Z,66.67
2019-02-11T06:56:33.170Z,66.83
2019-02-11T06:59:05.468Z,66.92
2019-02-11T07:01:37.523Z,66.93
2019-02-11T07:04:09.805Z,66.83
2019-02-11T07:06:43.062Z,66.79
2019-02-11T07:09:15.171Z,66.86
2019-02-11T07:11:47.700Z,66.93
2019-02-11T07:14:20.880Z,66.96
2019-02-11T07:16:52.936Z,66.97
2019-02-11T07:19:25.331Z,67.00
2019-02-11T07:21:57.616Z,66.85
2019-02-11T07:24:29.941Z,66.96
2019-02-11T07:27:02.213Z,67.05
2019-02-11T07:29:34.764Z,67.17
2019-02-11T07:32:07.952Z,67.12
2019-02-11T07:34:40.219Z,67.23
2019-02-11T07:37:12.464Z,67.18
2019-02-11T07:39:44.585Z,67.15
2019-02-11T07:42:38.233Z,67.28
2019-02-11T07:45:29.670Z,67.54
2019-02-11T07:47:56.155Z,67.90
2019-02-11T07:50:31.182Z,67.95
2019-02-11T07:53:03.408Z,68.03
2019-02-11T07:55:35.423Z,68.14
2019-02-11T07:58:07.661Z,68.14
2019-02-11T08:00:39.757Z,68.14
2019-02-11T08:03:11.931Z,68.12
2019-02-11T08:05:44.425Z,68.16
2019-02-11T08:08:17.440Z,68.14
2019-02-11T08:10:49.597Z,68.13
2019-02-11T08:13:21.932Z,68.18
2019-02-11T08:15:53.926Z,68.22
2019-02-11T08:18:26.073Z,68.21
2019-02-11T08:21:00.221Z,68.20
2019-02-11T08:23:32.517Z,68.22
2019-02-11T08:26:06.671Z,68.28
2019-02-11T08:28:38.797Z,68.28
2019-02-11T08:31:10.963Z,68.26
2019-02-11T08:33:44.066Z,68.30
2019-02-11T08:36:16.532Z,68.34
2019-02-11T08:38:48.759Z,68.30
2019-02-11T08:41:21.081Z,68.33
2019-02-11T08:43:53.561Z,68.35
2019-02-11T08:46:26.157Z,68.36
2019-02-11T08:48:58.629Z,68.33
2019-02-11T08:51:31.001Z,68.32
2019-02-11T08:54:04.046Z,68.34
2019-02-11T08:56:37.398Z,68.37
2019-02-11T08:59:09.905Z,68.35
2019-02-11T09:01:42.124Z,68.35
2019-02-11T09:04:18.961Z,68.34
2019-02-11T09:06:48.527Z,68.33
2019-02-11T09:09:21.245Z,68.34
2019-02-11T09:11:53.431Z,68.31
2019-02-11T09:14:25.672Z,68.38
2019-02-11T09:16:57.924Z,68.31
2019-02-11T09:19:30.312Z,68.20
2019-02-11T09:22:07.549Z,68.29
2019-02-11T09:24:36.493Z,68.30
2019-02-11T09:27:08.689Z,68.29
2019-02-11T09:29:41.984Z,68.33
2019-02-11T09:32:14.045Z,68.38
2019-02-11T09:34:46.463Z,68.39
2019-02-11T09:37:20.736Z,68.36
2019-02-11T09:39:52.925Z,68.38
2019-02-11T09:42:24.962Z,68.37
2019-02-11T09:44:57.295Z,68.34
2019-02-11T09:47:29.486Z,68.35
2019-02-11T09:50:14.400Z,68.31
2019-02-11T09:52:46.610Z,68.25
2019-02-11T09:55:24.185Z,68.23
2019-02-11T09:57:56.499Z,68.19
2019-02-11T10:00:28.702Z,68.25
2019-02-11T10:03:00.899Z,68.27
2019-02-11T10:05:33.486Z,68.32
2019-02-11T10:08:05.780Z,68.25
2019-02-11T10:10:38.510Z,68.38
2019-02-11T10:13:10.922Z,68.33
2019-02-11T10:15:43.115Z,68.33
2019-02-11T10:18:16.247Z,68.39
2019-02-11T10:20:48.438Z,68.39
2019-02-11T10:23:20.610Z,68.41
2019-02-11T10:25:52.952Z,68.33
2019-02-11T10:28:25.060Z,68.04
2019-02-11T10:30:57.314Z,68.08
2019-02-11T10:33:29.837Z,67.82
2019-02-11T10:36:01.911Z,67.73
2019-02-11T10:38:36.545Z,68.13
2019-02-11T10:41:07.905Z,67.53
2019-02-11T10:43:40.286Z,68.08
2019-02-11T10:46:20.664Z,67.75
2019-02-11T10:48:48.812Z,68.22
2019-02-11T10:51:23.010Z,68.24
2019-02-11T10:53:55.294Z,68.51
2019-02-11T10:56:28.468Z,68.58
2019-02-11T10:59:00.904Z,68.78
2019-02-11T11:01:34.052Z,68.83
2019-02-11T11:04:06.522Z,68.64
2019-02-11T11:06:38.849Z,68.84
2019-02-11T11:09:13.152Z,67.46
2019-02-11T11:11:45.389Z,68.56
2019-02-11T11:14:17.832Z,70.69
2019-02-11T11:16:50.275Z,71.35
2019-02-11T11:19:22.786Z,72.08
2019-02-11T11:21:55.018Z,71.88
2019-02-11T11:24:28.305Z,71.95
2019-02-11T11:27:00.585Z,72.31
2019-02-11T11:29:33.196Z,72.31
2019-02-11T11:32:07.389Z,72.58
2019-02-11T11:34:40.037Z,72.66
2019-02-11T11:37:13.519Z,72.71
2019-02-11T11:39:45.901Z,72.57
2019-02-11T11:42:18.546Z,72.60
2019-02-11T11:44:50.799Z,72.38
2019-02-11T11:47:24.294Z,72.35
2019-02-11T11:49:56.542Z,72.37
2019-02-11T11:52:28.970Z,72.44
2019-02-11T11:55:01.168Z,72.37
2019-02-11T11:57:33.820Z,72.54
2019-02-11T12:00:06.781Z,72.69
2019-02-11T12:02:39.194Z,72.80
2019-02-11T12:05:11.486Z,72.84
2019-02-11T12:07:43.758Z,72.90
2019-02-11T12:10:17.193Z,72.94
2019-02-11T12:12:49.355Z,72.94
2019-02-11T12:15:22.957Z,72.93
2019-02-11T12:17:55.282Z,72.94
2019-02-11T12:20:32.953Z,72.93
2019-02-11T12:23:04.504Z,72.92
2019-02-11T12:25:36.705Z,72.95
2019-02-11T12:28:08.845Z,72.97
2019-02-11T12:30:41.258Z,72.96
2019-02-11T12:33:13.301Z,72.98
2019-02-11T12:35:45.461Z,72.95
2019-02-11T12:38:17.641Z,72.98
2019-02-11T12:40:49.750Z,72.97
2019-02-11T12:43:22.071Z,73.00
2019-02-11T12:45:54.619Z,72.98
2019-02-11T12:48:28.209Z,72.97
2019-02-11T12:51:00.588Z,72.99
2019-02-11T12:53:34.009Z,72.97
2019-02-11T12:56:07.190Z,72.96
2019-02-11T12:58:39.349Z,72.93
2019-02-11T13:01:11.549Z,72.94
2019-02-11T13:03:43.703Z,72.92
2019-02-11T13:06:16.098Z,72.83
2019-02-11T13:08:48.221Z,72.85
2019-02-11T13:11:20.286Z,72.78
2019-02-11T13:13:52.474Z,72.87
2019-02-11T13:16:26.939Z,72.87
2019-02-11T13:19:00.218Z,72.98
2019-02-11T13:21:32.437Z,72.70
2019-02-11T13:24:04.833Z,72.66
2019-02-11T13:26:36.988Z,72.74
2019-02-11T13:29:09.383Z,72.73
2019-02-11T13:31:41.501Z,72.73
2019-02-11T13:34:16.004Z,72.81
2019-02-11T13:36:48.167Z,72.72
2019-02-11T13:39:20.335Z,72.86
2019-02-11T13:41:53.461Z,72.95
2019-02-11T13:44:25.739Z,72.96
2019-02-11T13:46:59.805Z,72.94
2019-02-11T13:49:32.006Z,72.75
2019-02-11T13:52:05.331Z,72.87
2019-02-11T13:54:37.500Z,72.89
2019-02-11T13:57:09.783Z,72.94
2019-02-11T13:59:42.156Z,72.98
2019-02-11T14:02:14.457Z,72.88
2019-02-11T14:04:46.786Z,72.98
2019-02-11T14:07:19.238Z,72.93
2019-02-11T14:09:53.540Z,72.91
2019-02-11T14:12:26.207Z,72.87
2019-02-11T14:14:58.447Z,72.86
2019-02-11T14:17:30.597Z,72.96
2019-02-11T14:20:05.375Z,72.50
2019-02-11T14:22:37.848Z,72.08
2019-02-11T14:25:10.001Z,70.99
2019-02-11T14:27:43.268Z,71.57
2019-02-11T14:30:15.929Z,71.98
2019-02-11T14:32:49.338Z,72.17
2019-02-11T14:35:22.993Z,72.13
2019-02-11T14:37:55.417Z,72.06
2019-02-11T14:40:27.911Z,71.47
2019-02-11T14:43:00.415Z,71.86
2019-02-11T14:45:32.955Z,72.06
2019-02-11T14:48:05.326Z,72.07
2019-02-11T14:50:37.980Z,72.01
2019-02-11T14:53:10.331Z,71.95
2019-02-11T14:55:42.741Z,71.84
2019-02-11T14:58:14.968Z,71.76
2019-02-11T15:00:47.378Z,71.74
2019-02-11T15:03:19.633Z,71.75
2019-02-11T15:05:51.802Z,71.72
2019-02-11T15:08:23.895Z,71.69
2019-02-11T15:10:56.202Z,71.71
2019-02-11T15:13:28.394Z,71.70
2019-02-11T15:16:00.663Z,71.67
2019-02-11T15:18:34.529Z,71.63
2019-02-11T15:21:07.800Z,71.63
2019-02-11T15:23:40.081Z,71.56
2019-02-11T15:26:15.205Z,71.54
2019-02-11T15:28:47.707Z,71.58
2019-02-11T15:31:19.906Z,71.56
2019-02-11T15:33:53.972Z,71.55
2019-02-11T15:36:26.134Z,71.54
2019-02-11T15:38:59.461Z,71.46
2019-02-11T15:41:31.864Z,71.56
2019-02-11T15:44:04.105Z,71.58
2019-02-11T15:46:36.233Z,71.65
2019-02-11T15:49:08.869Z,71.70
2019-02-11T15:51:42.030Z,71.70
2019-02-11T15:54:14.293Z,71.75
2019-02-11T15:56:46.669Z,71.78
2019-02-11T15:59:18.874Z,71.79
2019-02-11T16:01:51.420Z,71.78
2019-02-11T16:04:23.513Z,71.83
2019-02-11T16:06:56.905Z,71.85
2019-02-11T16:09:29.094Z,71.90
2019-02-11T16:12:01.551Z,71.88
2019-02-11T16:14:33.915Z,71.91
2019-02-11T16:17:06.363Z,71.99
2019-02-11T16:19:40.639Z,71.99
2019-02-11T16:22:13.888Z,71.93
2019-02-11T16:24:46.221Z,72.00
2019-02-11T16:27:18.397Z,71.99
2019-02-11T16:29:50.608Z,71.93
2019-02-11T16:32:22.999Z,71.77
2019-02-11T16:34:55.403Z,71.83
2019-02-11T16:37:28.727Z,71.92
2019-02-11T16:40:01.067Z,71.93
2019-02-11T16:42:33.443Z,72.00
2019-02-11T16:45:05.626Z,72.03
2019-02-11T16:47:38.111Z,72.09
2019-02-11T16:50:10.549Z,72.14
2019-02-11T16:52:43.697Z,72.13
2019-02-11T16:55:15.901Z,72.19
2019-02-11T16:57:48.225Z,71.90
2019-02-11T17:00:20.479Z,72.05
2019-02-11T17:02:52.864Z,71.84
2019-02-11T17:05:25.153Z,71.57
2019-02-11T17:07:57.504Z,71.70
2019-02-11T17:10:29.882Z,71.59
2019-02-11T17:13:01.973Z,71.66
2019-02-11T17:15:34.275Z,71.53
2019-02-11T17:18:06.451Z,71.42
2019-02-11T17:20:38.967Z,71.51
2019-02-11T17:23:11.257Z,71.47
2019-02-11T17:25:43.524Z,71.55
2019-02-11T17:28:15.828Z,71.76
2019-02-11T17:30:48.255Z,71.87
2019-02-11T17:33:20.474Z,71.89
2019-02-11T17:35:52.879Z,71.73
2019-02-11T17:38:25.299Z,71.82
2019-02-11T17:40:57.606Z,71.76
2019-02-11T17:43:29.742Z,71.74
2019-02-11T17:46:02.113Z,71.64
2019-02-11T17:48:34.316Z,71.66
2019-02-11T17:51:06.620Z,71.62
2019-02-11T17:53:39.377Z,72.04
2019-02-11T17:56:11.626Z,72.19
2019-02-11T17:58:44.010Z,72.40
2019-02-11T18:01:16.630Z,72.49
2019-02-11T18:03:48.869Z,72.56
2019-02-11T18:06:21.511Z,72.54
2019-02-11T18:08:54.002Z,72.61
2019-02-11T18:11:26.244Z,72.50
2019-02-11T18:13:58.918Z,72.67
2019-02-11T18:16:31.193Z,72.58
2019-02-11T18:19:03.719Z,72.49
2019-02-11T18:21:35.913Z,72.45
2019-02-11T18:24:08.462Z,72.51
2019-02-11T18:26:40.591Z,72.54
2019-02-11T18:29:13.127Z,72.53
2019-02-11T18:31:45.453Z,72.52
2019-02-11T18:34:17.827Z,72.55
2019-02-11T18:36:50.340Z,72.52
2019-02-11T18:39:22.561Z,72.57
2019-02-11T18:41:54.972Z,72.50
2019-02-11T18:44:28.336Z,72.57
2019-02-11T18:47:00.690Z,72.57
2019-02-11T18:49:34.554Z,72.57
2019-02-11T18:52:07.083Z,72.56
2019-02-11T18:54:39.822Z,72.50
2019-02-11T18:57:11.982Z,72.54
2019-02-11T18:59:44.353Z,72.58
2019-02-11T19:02:16.595Z,72.54
2019-02-11T19:04:48.929Z,72.58
2019-02-11T19:07:21.505Z,72.61
2019-02-11T19:09:53.815Z,72.66
2019-02-11T19:12:25.905Z,72.68
2019-02-11T19:14:58.239Z,72.76
2019-02-11T19:17:30.518Z,72.80
2019-02-11T19:20:02.744Z,72.80
2019-02-11T19:22:35.126Z,72.86
2019-02-11T19:25:07.844Z,72.77
2019-02-11T19:27:40.078Z,72.67
2019-02-11T19:30:14.222Z,72.71
2019-02-11T19:32:46.440Z,72.76
2019-02-11T19:35:18.881Z,72.82
2019-02-11T19:37:51.256Z,72.81
2019-02-11T19:40:23.637Z,72.90
2019-02-11T19:42:55.930Z,72.90
2019-02-11T19:45:28.473Z,72.86
2019-02-11T19:48:00.543Z,72.78
2019-02-11T19:50:32.854Z,72.81
2019-02-11T19:53:05.321Z,72.89
2019-02-11T19:55:37.809Z,72.85
2019-02-11T19:58:10.153Z,72.89
2019-02-11T20:00:42.679Z,72.87
2019-02-11T20:03:14.762Z,72.89
2019-02-11T20:05:47.189Z,72.92
2019-02-11T20:08:19.503Z,73.00
2019-02-11T20:10:51.801Z,72.90
2019-02-11T20:13:24.140Z,72.92
2019-02-11T20:15:56.267Z,72.90
2019-02-11T20:18:28.559Z,72.85
2019-02-11T20:21:00.720Z,72.84
2019-02-11T20:23:34.549Z,72.89
2019-02-11T20:26:06.754Z,72.93
2019-02-11T20:28:38.919Z,72.94
2019-02-11T20:31:11.245Z,72.91
2019-02-11T20:33:43.576Z,72.92
2019-02-11T20:36:15.944Z,72.98
2019-02-11T20:38:48.356Z,73.06
2019-02-11T20:41:20.819Z,73.08
2019-02-11T20:43:53.004Z,73.01
2019-02-11T20:46:25.398Z,73.05
2019-02-11T20:48:57.615Z,73.02
2019-02-11T20:51:29.793Z,73.02
2019-02-11T20:54:02.305Z,73.11
2019-02-11T20:56:35.132Z,73.04
2019-02-11T20:59:08.540Z,73.03
2019-02-11T21:01:41.445Z,73.04
2019-02-11T21:04:13.586Z,73.09
2019-02-11T21:06:45.793Z,73.09
2019-02-11T21:09:17.892Z,73.05
2019-02-11T21:11:50.177Z,73.03
2019-02-11T21:14:22.324Z,73.06
2019-02-11T21:16:54.705Z,73.10
2019-02-11T21:19:26.930Z,73.05
2019-02-11T21:21:59.225Z,73.05
2019-02-11T21:24:31.452Z,73.03
2019-02-11T21:27:03.716Z,72.94
2019-02-11T21:29:35.785Z,73.02
2019-02-11T21:32:08.039Z,73.03
2019-02-11T21:34:40.118Z,73.06
2019-02-11T21:37:12.303Z,73.04
2019-02-11T21:39:44.506Z,73.07
2019-02-11T21:42:16.689Z,73.08
2019-02-11T21:44:48.728Z,73.05
2019-02-11T21:47:20.852Z,73.03
2019-02-11T21:49:52.951Z,73.05
2019-02-11T21:52:25.200Z,72.96
2019-02-11T21:54:57.458Z,73.09
2019-02-11T21:57:29.739Z,73.06
2019-02-11T22:00:01.989Z,73.10
2019-02-11T22:02:35.198Z,73.09
2019-02-11T22:05:07.377Z,73.08
2019-02-11T22:07:39.572Z,73.10
2019-02-11T22:10:12.344Z,73.08
2019-02-11T22:12:44.611Z,73.12
2019-02-11T22:15:17.044Z,73.15
2019-02-11T22:17:49.324Z,73.12
2019-02-11T22:20:21.554Z,73.13
2019-02-11T22:22:53.888Z,73.06
2019-02-11T22:25:26.217Z,73.07
2019-02-11T22:27:58.476Z,73.11
2019-02-11T22:30:30.754Z,73.15
2019-02-11T22:33:02.967Z,73.21
2019-02-11T22:35:35.209Z,73.27
2019-02-11T22:38:07.349Z,73.30
2019-02-11T22:40:39.532Z,73.33
2019-02-11T22:43:11.825Z,73.36
2019-02-11T22:45:44.045Z,73.44
2019-02-11T22:48:16.357Z,73.49
2019-02-11T22:50:48.539Z,73.43
2019-02-11T22:53:20.933Z,73.46
2019-02-11T22:55:53.024Z,73.56
2019-02-11T22:58:25.203Z,73.58
2019-02-11T23:01:02.359Z,73.53
2019-02-11T23:03:34.701Z,73.40
2019-02-11T23:06:07.062Z,73.43
2019-02-11T23:08:40.184Z,73.43
2019-02-11T23:11:12.363Z,73.47
2019-02-11T23:13:44.560Z,73.61
2019-02-11T23:16:16.714Z,73.59
2019-02-11T23:18:49.007Z,73.54
2019-02-11T23:21:21.129Z,73.59
2019-02-11T23:23:53.366Z,73.57
2019-02-11T23:26:25.461Z,73.56
2019-02-11T23:28:57.688Z,73.59
2019-02-11T23:31:29.787Z,73.53
2019-02-11T23:34:01.974Z,73.47
2019-02-11T23:36:34.191Z,73.51
2019-02-11T23:39:08.149Z,73.51
2019-02-11T23:41:40.277Z,73.46
2019-02-11T23:44:12.387Z,73.49
2019-02-11T23:46:44.472Z,73.46
2019-02-11T23:49:16.737Z,73.42
2019-02-11T23:51:48.936Z,73.50
2019-02-11T23:54:21.208Z,73.61
2019-02-11T23:56:53.352Z,73.55
2019-02-11T23:59:25.923Z,73.60
